createdAt,value
2018-06-24T00:01:27.099Z,17.76
2018-06-24T00:04:04.679Z,17.73
2018-06-24T00:06:42.721Z,17.78
2018-06-24T00:09:20.097Z,17.71
2018-06-24T00:11:57.528Z,17.60
2018-06-24T00:14:34.993Z,17.61
2018-06-24T00:17:13.151Z,17.62
2018-06-24T00:19:51.090Z,17.64
2018-06-24T00:22:29.206Z,17.51
2018-06-24T00:25:07.546Z,17.51
2018-06-24T00:27:45.882Z,17.64
2018-06-24T00:30:23.579Z,17.65
2018-06-24T00:33:02.001Z,17.62
2018-06-24T00:46:05.921Z,17.52
2018-06-24T00:48:43.553Z,17.56
2018-06-24T00:51:21.258Z,17.64
2018-06-24T00:53:58.887Z,17.63
2018-06-24T00:56:36.001Z,17.45
2018-06-24T00:59:14.556Z,17.49
2018-06-24T01:01:51.881Z,17.58
2018-06-24T01:04:29.803Z,17.45
2018-06-24T01:07:07.314Z,17.48
2018-06-24T01:09:44.888Z,17.53
2018-06-24T01:12:22.323Z,17.57
2018-06-24T01:14:59.840Z,17.59
2018-06-24T01:17:37.369Z,17.54
2018-06-24T01:20:15.586Z,17.57
2018-06-24T01:22:52.882Z,17.53
2018-06-24T01:25:30.391Z,17.58
2018-06-24T01:28:07.777Z,17.57
2018-06-24T01:30:45.193Z,17.63
2018-06-24T01:33:22.777Z,17.61
2018-06-24T01:36:00.302Z,17.58
2018-06-24T01:38:37.781Z,17.61
2018-06-24T01:41:15.325Z,17.65
2018-06-24T01:43:52.712Z,17.57
2018-06-24T01:46:30.395Z,17.65
2018-06-24T01:49:07.810Z,17.59
2018-06-24T01:51:45.499Z,17.45
2018-06-24T01:54:22.868Z,17.39
2018-06-24T01:57:00.479Z,17.23
2018-06-24T01:59:37.966Z,17.20
2018-06-24T02:02:15.667Z,17.10
2018-06-24T02:04:53.117Z,17.19
2018-06-24T02:07:30.394Z,17.21
2018-06-24T02:10:08.040Z,17.26
2018-06-24T02:12:45.302Z,17.28
2018-06-24T02:15:22.719Z,17.33
2018-06-24T02:18:01.034Z,17.37
2018-06-24T02:20:37.933Z,17.43
2018-06-24T02:23:15.271Z,17.41
2018-06-24T02:25:52.462Z,17.41
2018-06-24T02:28:30.211Z,17.45
2018-06-24T02:31:07.579Z,17.32
2018-06-24T02:33:45.147Z,17.35
2018-06-24T02:36:22.754Z,17.37
2018-06-24T02:39:00.146Z,17.13
2018-06-24T02:41:37.880Z,17.32
2018-06-24T02:44:15.314Z,17.16
2018-06-24T02:46:52.919Z,17.04
2018-06-24T02:49:30.752Z,17.07
2018-06-24T02:52:08.090Z,17.12
2018-06-24T02:54:45.555Z,17.16
2018-06-24T02:57:22.832Z,17.05
2018-06-24T03:00:01.057Z,17.28
2018-06-24T03:02:38.878Z,17.33
2018-06-24T03:05:15.966Z,17.36
2018-06-24T03:07:53.632Z,17.28
2018-06-24T03:10:30.664Z,17.37
2018-06-24T03:13:07.908Z,17.39
2018-06-24T03:15:45.625Z,17.46
2018-06-24T03:18:23.424Z,17.48
2018-06-24T03:21:01.375Z,17.46
2018-06-24T03:23:39.721Z,17.40
2018-06-24T03:26:17.030Z,17.38
2018-06-24T03:28:54.532Z,17.38
2018-06-24T03:31:32.012Z,17.37
2018-06-24T03:34:09.726Z,17.29
2018-06-24T03:36:47.063Z,17.29
2018-06-24T03:39:24.503Z,17.31
2018-06-24T03:42:01.952Z,17.31
2018-06-24T03:44:39.783Z,17.30
2018-06-24T03:47:16.870Z,17.23
2018-06-24T03:49:54.461Z,17.18
2018-06-24T03:52:31.805Z,17.09
2018-06-24T03:55:09.382Z,17.01
2018-06-24T03:57:46.763Z,16.96
2018-06-24T04:00:24.156Z,17.03
2018-06-24T04:03:01.504Z,17.12
2018-06-24T04:05:39.044Z,17.16
2018-06-24T04:08:16.585Z,17.30
2018-06-24T04:10:54.484Z,17.37
2018-06-24T04:13:32.051Z,17.41
2018-06-24T04:16:10.548Z,17.41
2018-06-24T04:18:48.410Z,17.50
2018-06-24T04:21:28.487Z,17.42
2018-06-24T04:24:06.632Z,17.53
2018-06-24T04:26:43.903Z,17.48
2018-06-24T04:29:21.375Z,17.55
2018-06-24T04:31:59.378Z,17.50
2018-06-24T04:34:37.047Z,17.60
2018-06-24T04:37:14.724Z,17.54
2018-06-24T04:39:51.996Z,17.68
2018-06-24T04:42:29.661Z,17.68
2018-06-24T04:45:07.119Z,17.69
2018-06-24T04:47:44.218Z,17.89
2018-06-24T04:50:21.587Z,17.94
2018-06-24T04:52:58.935Z,17.96
2018-06-24T04:55:36.604Z,18.06
2018-06-24T04:58:14.223Z,18.06
2018-06-24T05:00:52.006Z,18.18
2018-06-24T05:03:29.492Z,17.90
2018-06-24T05:06:06.986Z,17.81
2018-06-24T05:08:44.506Z,17.77
2018-06-24T05:11:22.261Z,17.68
2018-06-24T05:13:59.700Z,17.85
2018-06-24T05:16:37.482Z,17.93
2018-06-24T05:19:14.807Z,17.95
2018-06-24T05:21:52.287Z,18.00
2018-06-24T05:24:29.764Z,18.05
2018-06-24T05:27:06.788Z,18.15
2018-06-24T05:29:43.754Z,18.14
2018-06-24T05:32:21.278Z,18.06
2018-06-24T05:34:58.413Z,17.92
2018-06-24T05:37:35.767Z,18.05
2018-06-24T05:40:13.128Z,18.18
2018-06-24T05:42:50.454Z,18.26
2018-06-24T05:45:27.612Z,18.44
2018-06-24T05:48:04.898Z,18.37
2018-06-24T05:50:42.464Z,18.67
2018-06-24T05:53:20.291Z,18.83
2018-06-24T05:55:57.779Z,18.81
2018-06-24T05:58:35.175Z,19.02
2018-06-24T06:01:12.155Z,18.96
2018-06-24T06:03:49.746Z,19.05
2018-06-24T06:06:27.183Z,19.59
2018-06-24T06:09:04.100Z,19.62
2018-06-24T06:11:41.114Z,19.79
2018-06-24T06:14:18.330Z,20.02
2018-06-24T06:16:55.825Z,20.07
2018-06-24T06:19:33.302Z,19.89
2018-06-24T06:22:10.859Z,19.83
2018-06-24T06:24:48.268Z,19.84
2018-06-24T06:27:25.225Z,19.43
2018-06-24T06:30:02.812Z,19.38
2018-06-24T06:32:40.283Z,19.68
2018-06-24T06:35:17.400Z,19.86
2018-06-24T06:37:54.593Z,20.06
2018-06-24T06:40:31.891Z,20.13
2018-06-24T06:43:09.858Z,20.37
2018-06-24T06:45:47.332Z,20.74
2018-06-24T06:48:24.801Z,20.28
2018-06-24T06:51:01.970Z,20.41
2018-06-24T06:53:39.194Z,20.30
2018-06-24T06:56:16.512Z,20.56
2018-06-24T06:58:53.789Z,20.84
2018-06-24T07:01:31.188Z,20.81
2018-06-24T07:04:08.678Z,20.72
2018-06-24T07:06:46.296Z,20.92
2018-06-24T07:09:23.109Z,21.25
2018-06-24T07:12:00.497Z,21.22
2018-06-24T07:14:37.764Z,21.79
2018-06-24T07:17:15.268Z,22.16
2018-06-24T07:19:52.686Z,22.07
2018-06-24T07:22:30.185Z,21.91
2018-06-24T07:25:07.984Z,21.64
2018-06-24T07:27:45.787Z,22.04
2018-06-24T07:30:23.170Z,21.99
2018-06-24T07:33:00.506Z,21.78
2018-06-24T07:35:38.039Z,21.66
2018-06-24T07:38:15.672Z,21.43
2018-06-24T07:40:53.226Z,21.39
2018-06-24T07:43:30.277Z,21.82
2018-06-24T07:46:07.252Z,21.97
2018-06-24T07:48:44.829Z,21.66
2018-06-24T07:51:22.105Z,21.27
2018-06-24T07:53:59.621Z,21.10
2018-06-24T07:56:37.386Z,20.98
2018-06-24T07:59:16.479Z,20.81
2018-06-24T08:01:53.905Z,20.79
2018-06-24T08:04:36.406Z,20.72
2018-06-24T08:07:17.934Z,20.45
2018-06-24T08:09:55.424Z,20.53
2018-06-24T08:12:33.196Z,20.23
2018-06-24T08:15:08.587Z,20.08
2018-06-24T08:17:46.602Z,20.11
2018-06-24T08:20:26.300Z,19.92
2018-06-24T08:23:05.086Z,19.93
2018-06-24T08:25:43.815Z,20.12
2018-06-24T08:28:22.128Z,19.94
2018-06-24T08:31:02.203Z,20.09
2018-06-24T08:33:40.631Z,20.21
2018-06-24T08:36:18.956Z,20.27
2018-06-24T08:38:57.340Z,20.33
2018-06-24T08:41:35.761Z,20.31
2018-06-24T08:44:13.599Z,20.22
2018-06-24T08:46:51.860Z,20.21
2018-06-24T08:49:30.428Z,20.48
2018-06-24T08:52:08.593Z,20.27
2018-06-24T08:54:46.984Z,20.08
2018-06-24T08:57:24.616Z,20.51
2018-06-24T09:00:04.802Z,20.19
2018-06-24T09:02:42.866Z,20.36
2018-06-24T09:05:20.673Z,20.68
2018-06-24T09:07:58.407Z,20.67
2018-06-24T09:10:38.572Z,20.43
2018-06-24T09:13:16.814Z,20.55
2018-06-24T09:15:55.239Z,20.84
2018-06-24T09:18:34.405Z,20.37
2018-06-24T09:21:13.166Z,20.39
2018-06-24T09:23:51.134Z,20.80
2018-06-24T09:26:29.609Z,21.41
2018-06-24T09:29:08.458Z,22.01
2018-06-24T09:31:46.663Z,22.66
2018-06-24T09:34:25.243Z,23.18
2018-06-24T09:37:03.513Z,23.83
2018-06-24T09:39:42.947Z,24.36
2018-06-24T09:42:21.048Z,24.56
2018-06-24T09:44:59.836Z,24.30
2018-06-24T09:47:37.118Z,24.52
2018-06-24T09:50:14.822Z,24.46
2018-06-24T09:52:52.196Z,24.47
2018-06-24T09:55:29.780Z,23.75
2018-06-24T09:58:07.061Z,23.45
2018-06-24T10:00:44.088Z,23.63
2018-06-24T10:03:21.913Z,23.50
2018-06-24T10:05:59.274Z,23.75
2018-06-24T10:08:36.911Z,24.04
2018-06-24T10:11:14.434Z,24.19
2018-06-24T10:13:51.515Z,23.95
2018-06-24T10:16:29.128Z,23.25
2018-06-24T10:19:07.070Z,23.34
2018-06-24T10:21:44.414Z,23.35
2018-06-24T10:24:22.231Z,23.46
2018-06-24T10:26:59.412Z,24.11
2018-06-24T10:29:38.179Z,23.76
2018-06-24T10:32:15.181Z,23.71
2018-06-24T10:34:52.530Z,24.17
2018-06-24T10:37:29.983Z,24.15
2018-06-24T10:40:08.023Z,24.36
2018-06-24T10:42:46.159Z,24.18
2018-06-24T10:45:23.290Z,23.82
2018-06-24T10:48:00.439Z,23.81
2018-06-24T10:50:38.325Z,24.15
2018-06-24T10:53:16.040Z,23.80
2018-06-24T10:55:53.378Z,23.99
2018-06-24T10:58:30.650Z,23.85
2018-06-24T11:01:08.096Z,23.73
2018-06-24T11:03:45.088Z,23.56
2018-06-24T11:06:22.437Z,23.84
2018-06-24T11:09:00.012Z,24.18
2018-06-24T11:11:38.273Z,24.01
2018-06-24T11:14:15.834Z,23.49
2018-06-24T11:16:53.026Z,23.59
2018-06-24T11:19:30.935Z,23.76
2018-06-24T11:22:08.447Z,23.78
2018-06-24T11:24:49.954Z,23.93
2018-06-24T11:27:27.321Z,24.32
2018-06-24T11:30:04.885Z,24.15
2018-06-24T11:32:42.548Z,24.00
2018-06-24T11:35:20.068Z,24.09
2018-06-24T11:37:57.343Z,23.69
2018-06-24T11:40:34.672Z,23.76
2018-06-24T11:43:12.086Z,23.61
2018-06-24T11:45:49.370Z,23.65
2018-06-24T11:48:26.750Z,24.21
2018-06-24T11:51:04.236Z,24.63
2018-06-24T11:53:41.731Z,24.85
2018-06-24T11:56:18.820Z,24.97
2018-06-24T11:58:56.140Z,25.24
2018-06-24T12:01:33.557Z,25.71
2018-06-24T12:04:11.149Z,26.12
2018-06-24T12:06:49.009Z,25.11
2018-06-24T12:09:26.675Z,25.57
2018-06-24T12:12:04.123Z,25.48
2018-06-24T12:14:41.320Z,25.86
2018-06-24T12:17:18.844Z,25.87
2018-06-24T12:19:56.381Z,25.92
2018-06-24T12:22:33.971Z,25.42
2018-06-24T12:25:11.076Z,25.33
2018-06-24T12:27:48.372Z,25.38
2018-06-24T12:30:25.606Z,25.10
2018-06-24T12:33:03.311Z,25.27
2018-06-24T12:35:40.537Z,25.36
2018-06-24T12:38:17.793Z,24.85
2018-06-24T12:40:55.188Z,24.81
2018-06-24T12:43:32.803Z,24.76
2018-06-24T12:46:10.438Z,24.63
2018-06-24T12:48:47.887Z,24.66
2018-06-24T12:51:25.191Z,24.54
2018-06-24T12:54:02.365Z,24.43
2018-06-24T12:56:39.883Z,24.41
2018-06-24T12:59:17.661Z,24.81
2018-06-24T13:01:55.043Z,25.06
2018-06-24T13:04:32.271Z,24.98
2018-06-24T13:07:09.781Z,24.91
2018-06-24T13:09:46.894Z,24.55
2018-06-24T13:12:24.111Z,24.35
2018-06-24T13:15:01.359Z,24.53
2018-06-24T13:17:38.799Z,24.35
2018-06-24T13:20:15.808Z,24.96
2018-06-24T13:22:53.366Z,25.14
2018-06-24T13:25:30.781Z,25.13
2018-06-24T13:28:08.288Z,24.94
2018-06-24T13:30:45.755Z,25.05
2018-06-24T13:33:23.414Z,24.62
2018-06-24T13:36:00.621Z,24.67
2018-06-24T13:38:37.847Z,25.12
2018-06-24T13:41:15.042Z,24.83
2018-06-24T13:43:52.105Z,24.22
2018-06-24T13:46:29.294Z,24.41
2018-06-24T13:49:06.427Z,24.42
2018-06-24T13:51:43.983Z,24.45
2018-06-24T13:54:21.630Z,24.42
2018-06-24T13:56:59.214Z,24.72
2018-06-24T13:59:36.792Z,24.41
2018-06-24T14:02:14.239Z,23.76
2018-06-24T14:04:52.053Z,24.08
2018-06-24T14:07:29.355Z,23.75
2018-06-24T14:10:06.943Z,23.57
2018-06-24T14:12:44.424Z,23.87
2018-06-24T14:15:22.459Z,24.12
2018-06-24T14:17:59.724Z,24.06
2018-06-24T14:20:37.555Z,24.20
2018-06-24T14:23:14.837Z,23.77
2018-06-24T14:25:52.544Z,23.60
2018-06-24T14:28:30.019Z,23.73
2018-06-24T14:31:07.553Z,23.60
2018-06-24T14:33:45.060Z,23.65
2018-06-24T14:36:22.320Z,23.69
2018-06-24T14:38:59.896Z,23.31
2018-06-24T14:41:37.444Z,23.15
2018-06-24T14:44:14.923Z,23.55
2018-06-24T14:46:52.717Z,23.47
2018-06-24T14:49:30.096Z,22.89
2018-06-24T14:52:07.751Z,22.73
2018-06-24T14:54:44.912Z,22.76
2018-06-24T14:57:22.043Z,22.62
2018-06-24T14:59:59.742Z,22.50
2018-06-24T15:02:39.662Z,22.48
2018-06-24T15:05:16.855Z,22.03
2018-06-24T15:07:54.450Z,22.28
2018-06-24T15:10:32.081Z,22.08
2018-06-24T15:13:09.687Z,22.04
2018-06-24T15:15:47.196Z,21.96
2018-06-24T15:18:24.683Z,22.00
2018-06-24T15:21:02.224Z,21.99
2018-06-24T15:23:39.506Z,22.09
2018-06-24T15:26:16.330Z,21.84
2018-06-24T15:28:53.567Z,22.02
2018-06-24T15:31:30.839Z,21.93
2018-06-24T15:34:07.955Z,21.67
2018-06-24T15:36:45.352Z,21.53
2018-06-24T15:39:22.770Z,21.85
2018-06-24T15:41:59.926Z,22.09
2018-06-24T15:44:36.931Z,21.88
2018-06-24T15:47:14.596Z,21.76
2018-06-24T15:49:52.380Z,21.61
2018-06-24T15:52:29.890Z,21.78
2018-06-24T15:55:07.233Z,21.90
2018-06-24T15:57:44.538Z,21.73
2018-06-24T16:00:22.109Z,21.66
2018-06-24T16:02:59.522Z,21.49
2018-06-24T16:05:36.725Z,21.31
2018-06-24T16:08:14.440Z,21.38
2018-06-24T16:10:52.041Z,21.20
2018-06-24T16:13:29.796Z,21.32
2018-06-24T16:16:07.159Z,21.31
2018-06-24T16:18:44.318Z,20.96
2018-06-24T16:21:21.616Z,20.92
2018-06-24T16:23:59.156Z,20.92
2018-06-24T16:26:36.492Z,21.06
2018-06-24T16:29:13.934Z,21.03
2018-06-24T16:31:51.930Z,20.88
2018-06-24T16:34:29.494Z,20.81
2018-06-24T16:37:07.023Z,21.13
2018-06-24T16:39:44.471Z,21.38
2018-06-24T16:42:22.104Z,21.36
2018-06-24T16:44:59.674Z,21.48
2018-06-24T16:47:37.483Z,21.46
2018-06-24T16:50:14.989Z,21.22
2018-06-24T16:52:52.441Z,21.47
2018-06-24T16:55:30.093Z,21.27
2018-06-24T16:58:07.929Z,21.10
2018-06-24T17:00:45.317Z,20.90
2018-06-24T17:03:22.823Z,20.92
2018-06-24T17:06:00.250Z,21.06
2018-06-24T17:08:37.820Z,21.06
2018-06-24T17:11:15.312Z,20.89
2018-06-24T17:13:52.954Z,20.87
2018-06-24T17:16:30.257Z,20.69
2018-06-24T17:19:07.254Z,20.60
2018-06-24T17:21:44.669Z,20.45
2018-06-24T17:24:22.355Z,20.64
2018-06-24T17:26:59.726Z,21.04
2018-06-24T17:29:37.101Z,21.01
2018-06-24T17:32:14.178Z,21.04
2018-06-24T17:34:51.281Z,21.06
2018-06-24T17:37:28.536Z,20.95
2018-06-24T17:40:06.188Z,20.83
2018-06-24T17:42:43.847Z,20.74
2018-06-24T17:45:21.103Z,20.55
2018-06-24T17:47:58.881Z,20.42
2018-06-24T17:50:36.485Z,20.47
2018-06-24T17:53:14.207Z,20.27
2018-06-24T17:55:51.852Z,20.14
2018-06-24T17:58:29.156Z,20.36
2018-06-24T18:01:06.840Z,20.43
2018-06-24T18:03:43.958Z,20.37
2018-06-24T18:06:21.103Z,20.38
2018-06-24T18:08:58.321Z,20.21
2018-06-24T18:11:35.851Z,20.48
2018-06-24T18:14:13.419Z,20.29
2018-06-24T18:16:51.282Z,20.28
2018-06-24T18:19:28.767Z,20.14
2018-06-24T18:22:06.153Z,20.16
2018-06-24T18:24:43.638Z,20.18
2018-06-24T18:27:21.382Z,20.17
2018-06-24T18:29:58.844Z,20.33
2018-06-24T18:32:36.515Z,20.26
2018-06-24T18:35:14.035Z,20.21
2018-06-24T18:37:51.742Z,20.11
2018-06-24T18:40:29.344Z,19.93
2018-06-24T18:42:56.949Z,19.94
2018-06-24T18:45:24.445Z,19.91
2018-06-24T18:47:51.833Z,19.67
2018-06-24T18:50:19.246Z,19.54
2018-06-24T18:52:46.622Z,19.50
2018-06-24T18:55:14.137Z,19.38
2018-06-24T18:57:41.519Z,19.24
2018-06-24T19:00:09.093Z,19.43
2018-06-24T19:02:37.373Z,19.37
2018-06-24T19:05:06.189Z,19.43
2018-06-24T19:07:42.552Z,19.74
2018-06-24T19:10:10.328Z,19.84
2018-06-24T19:12:37.813Z,19.52
2018-06-24T19:15:16.015Z,19.56
2018-06-24T19:20:34.038Z,19.51
2018-06-24T19:23:09.514Z,19.59
2018-06-24T19:25:38.096Z,19.37
2018-06-24T19:28:05.918Z,19.42
2018-06-24T19:30:33.365Z,19.38
2018-06-24T19:33:01.080Z,19.22
2018-06-24T19:35:28.677Z,19.10
2018-06-24T19:37:56.196Z,19.13
2018-06-24T19:40:23.715Z,19.18
2018-06-24T19:42:53.259Z,19.06
2018-06-24T19:45:21.142Z,19.18
2018-06-24T19:47:48.565Z,19.12
2018-06-24T19:50:16.199Z,19.11
2018-06-24T19:52:43.593Z,19.11
2018-06-24T19:55:11.244Z,19.33
2018-06-24T19:57:38.676Z,19.44
2018-06-24T20:00:06.126Z,19.44
2018-06-24T20:02:33.530Z,19.48
2018-06-24T20:05:01.403Z,19.56
2018-06-24T20:07:28.729Z,19.61
2018-06-24T20:09:56.534Z,19.60
2018-06-24T20:12:23.863Z,19.39
2018-06-24T20:14:51.428Z,19.36
2018-06-24T20:17:18.713Z,19.21
2018-06-24T20:19:45.985Z,19.15
2018-06-24T20:22:13.217Z,19.04
2018-06-24T20:24:40.431Z,19.15
2018-06-24T20:27:07.865Z,19.18
2018-06-24T20:29:35.093Z,19.03
2018-06-24T20:32:02.381Z,19.24
2018-06-24T20:34:29.649Z,19.20
2018-06-24T20:36:56.920Z,19.03
2018-06-24T20:39:24.222Z,19.04
2018-06-24T20:41:53.345Z,19.01
2018-06-24T20:44:20.608Z,19.09
2018-06-24T20:46:47.864Z,19.10
2018-06-24T20:49:15.127Z,18.89
2018-06-24T20:51:42.424Z,18.99
2018-06-24T20:54:09.666Z,19.01
2018-06-24T20:56:36.951Z,18.88
2018-06-24T20:59:04.278Z,18.88
2018-06-24T21:01:31.551Z,18.93
2018-06-24T21:03:58.999Z,18.87
2018-06-24T21:06:26.256Z,19.02
2018-06-24T21:08:53.528Z,18.91
2018-06-24T21:11:20.819Z,18.95
2018-06-24T21:13:48.087Z,18.94
2018-06-24T21:16:15.345Z,19.14
2018-06-24T21:18:42.911Z,18.96
2018-06-24T21:21:10.285Z,18.96
2018-06-24T21:23:37.599Z,18.94
2018-06-24T21:26:04.843Z,19.00
2018-06-24T21:28:32.107Z,18.94
2018-06-24T21:30:59.379Z,18.90
2018-06-24T21:33:26.625Z,18.86
2018-06-24T21:35:53.899Z,18.95
2018-06-24T21:38:21.165Z,19.02
2018-06-24T21:40:48.403Z,18.89
2018-06-24T21:43:15.822Z,19.07
2018-06-24T21:45:43.121Z,19.18
2018-06-24T21:48:10.367Z,19.24
2018-06-24T21:50:37.602Z,19.14
2018-06-24T21:53:04.934Z,19.18
2018-06-24T21:55:32.184Z,19.19
2018-06-24T21:57:59.503Z,19.28
2018-06-24T22:00:27.600Z,19.18
2018-06-24T22:02:54.932Z,19.09
2018-06-24T22:05:22.161Z,18.95
2018-06-24T22:07:49.425Z,19.00
2018-06-24T22:10:16.687Z,19.00
2018-06-24T22:12:43.950Z,19.02
2018-06-24T22:15:11.310Z,19.12
2018-06-24T22:17:38.577Z,19.10
2018-06-24T22:20:05.857Z,19.05
2018-06-24T22:22:33.193Z,19.04
2018-06-24T22:25:00.422Z,18.87
2018-06-24T22:27:27.646Z,18.94
2018-06-24T22:29:54.925Z,18.90
2018-06-24T22:32:22.190Z,18.93
2018-06-24T22:34:49.498Z,18.95
2018-06-24T22:37:16.744Z,18.97
2018-06-24T22:39:44.026Z,18.85
2018-06-24T22:42:11.258Z,18.91
2018-06-24T22:44:38.547Z,18.85
2018-06-24T22:47:05.843Z,18.89
2018-06-24T22:49:33.116Z,18.95
2018-06-24T22:52:00.363Z,18.95
2018-06-24T22:54:27.606Z,18.79
2018-06-24T22:56:54.862Z,18.87
2018-06-24T22:59:33.401Z,18.98
2018-06-24T23:02:00.634Z,18.85
2018-06-24T23:04:27.869Z,18.88
2018-06-24T23:06:55.169Z,18.93
2018-06-24T23:09:22.426Z,18.90
2018-06-24T23:11:49.696Z,18.70
2018-06-24T23:14:16.936Z,18.56
2018-06-24T23:16:44.198Z,18.68
2018-06-24T23:19:11.461Z,18.60
2018-06-24T23:21:38.753Z,18.61
2018-06-24T23:24:06.052Z,18.64
2018-06-24T23:26:33.301Z,18.70
2018-06-24T23:29:00.560Z,18.68
2018-06-24T23:31:27.770Z,18.72
2018-06-24T23:33:55.062Z,18.69
2018-06-24T23:36:22.279Z,18.74
2018-06-24T23:38:49.517Z,18.75
2018-06-24T23:41:16.777Z,18.86
2018-06-24T23:43:43.995Z,18.86
2018-06-24T23:46:11.242Z,18.87
2018-06-24T23:48:38.461Z,18.84
2018-06-24T23:51:05.801Z,18.82
2018-06-24T23:53:33.093Z,18.75
2018-06-24T23:56:00.365Z,18.79
2018-06-24T23:58:27.638Z,18.66
